Latest Coastal Weather Observations for Wyndham Airport

IDW60701

Issued at 2:15 am WST Sunday 31 August 2014 (issued every 10 minutes, with the page automatically refreshed every 10 minutes)

About coastal observations | Map of coastal stations | Coastal observations for WA | Marine services | Other Formats
Station Details ID: 001006 Name: WYNDHAM AERO Lat: -15.51 Lon: 128.15 Height: 3.8 m
Data from the previous 72 hours. | See also: Recent months for locations in Western Australia
Date/Time
WST
Temp

°C
Wind Pressure Rain
since 9am
mm
Weather Cloud Vis
km
Sea
Height
m
Swell
Dir
 
Speed
knots
Gust
knots
hPa Trend Height
m
Period
s
Dir
31/02:00am 13.5 S 0 0 1013.3 - 0.0 - - - - - - -
31/01:30am 14.9 CALM 0 0 1013.2 - 0.0 - - - - - - -
31/01:00am 15.4 WNW 3 4 1013.3 - 0.0 - - - - - - -
31/12:30am 15.2 W 4 5 1013.5 - 0.0 - - - - - - -
31/12:00am 15.4 ENE 0 0 1013.6 - 0.0 - - - - - - -
 
Date/Time
WST
Temp

°C
Wind Pressure Rain
since 9am
mm
Weather Cloud Vis
km
Sea
Height
m
Swell
Dir
 
Speed
knots
Gust
knots
hPa Trend Height
m
Period
s
Dir
30/11:30pm 14.8 ESE 3 3 1013.6 - 0.0 - - - - - - -
30/11:00pm 15.6 CALM 0 0 1013.6 - 0.0 - - - - - - -
30/10:30pm 16.8 CALM 0 0 1013.8 - 0.0 - - - - - - -
30/10:00pm 18.0 W 1 4 1013.9 - 0.0 - - - - - - -
30/09:30pm 18.7 CALM 0 0 1013.9 - 0.0 - - - - - - -
30/09:00pm 19.5 NNW 2 3 1014.0 - 0.0 - - - - - - -
30/08:30pm 20.3 ENE 3 5 1013.9 - 0.0 - - - - - - -
30/08:00pm 23.7 E 6 7 1013.8 - 0.0 - - - - - - -
30/07:30pm 23.9 E 6 7 1013.7 - 0.0 - - - - - - -
30/07:00pm 23.7 E 5 6 1013.4 - 0.0 - - - - - - -
30/06:30pm 24.3 ESE 6 7 1013.1 - 0.0 - - - - - - -
30/06:00pm 25.5 ESE 7 8 1012.7 - 0.0 - - - - - - -
30/05:30pm 27.8 E 6 7 1012.3 - 0.0 - - - - - - -
30/05:00pm 30.6 E 5 7 1012.1 - 0.0 - - - - - - -
30/04:30pm 32.0 E 10 12 1011.9 - 0.0 - - - - - - -
30/04:00pm 32.5 E 7 10 1011.8 - 0.0 - - - - - - -
30/03:30pm 32.8 ESE 10 17 1011.7 - 0.0 - - - - - - -
30/03:00pm 33.2 E 10 15 1011.7 - 0.0 - - - - - - -
30/02:30pm 33.2 ESE 11 17 1011.8 - 0.0 - - - - - - -
30/02:00pm 33.4 SE 9 15 1012.0 - 0.0 - - - - - - -
30/01:30pm 33.4 ESE 8 14 1012.3 - 0.0 - - - - - - -
30/01:00pm 32.7 ESE 12 16 1013.0 - 0.0 - - - - - - -
30/12:30pm 32.5 ESE 13 21 1013.4 - 0.0 - - - - - - -
30/12:00pm 33.0 SE 14 22 1013.9 - 0.0 - - - - - - -
30/11:30am 32.3 E 14 19 1014.5 - 0.0 - - - - - - -
30/11:02am 32.1 ESE 15 25 1014.9 - 0.0 - - - - - - -
30/11:00am 32.5 ESE 16 25 1014.9 - 0.0 - - - - - - -
30/10:53am 32.4 ESE 15 25 1015.0 - 0.0 - - - - - - -
30/10:30am 32.2 E 15 22 1015.5 - 0.0 - - - - - - -
30/10:00am 31.5 E 19 25 1016.1 - 0.0 - - - - - - -
30/09:30am 30.8 E 16 22 1016.7 - 0.0 - - - - - - -
30/09:00am 30.4 E 16 23 1016.9 - 0.0 - - - - - - -
30/08:57am 30.2 E 15 22 1016.9 - 0.0 - - - - - - -
30/08:30am 28.3 SSE 3 8 1017.1 - 0.0 - - - - - - -
30/08:00am 24.3 SSW 3 4 1017.1 - 0.0 - - - - - - -
30/07:30am 21.8 SW 1 4 1017.0 - 0.0 - - - - - - -
30/07:00am 19.7 NW 2 3 1016.9 - 0.0 - - - - - - -
30/06:30am 17.7 NW 1 4 1016.4 - 0.0 - - - - - - -
30/06:00am 13.2 CALM 0 2 1016.0 - 0.0 - - - - - - -
30/05:30am 11.5 S 1 4 1015.5 - 0.0 - - - - - - -
30/05:00am 10.9 S 1 4 1015.4 - 0.0 - - - - - - -
30/04:30am 11.8 CALM 0 0 1015.2 - 0.0 - - - - - - -
30/04:00am 14.9 CALM 0 0 1014.9 - 0.0 - - - - - - -
30/03:30am 13.6 SSW 3 5 1014.6 - 0.0 - - - - - - -
30/03:00am 13.2 CALM 0 0 1014.6 - 0.0 - - - - - - -
30/02:30am 15.5 NNW 3 5 1014.7 - 0.0 - - - - - - -
30/02:00am 16.1 WNW 2 4 1015.0 - 0.0 - - - - - - -
30/01:30am 16.5 CALM 0 3 1015.1 - 0.0 - - - - - - -
30/01:00am 15.6 WNW 3 4 1015.0 - 0.0 - - - - - - -
30/12:30am 14.6 W 1 4 1015.0 - 0.0 - - - - - - -
30/12:00am 15.3 NNW 3 4 1015.0 - 0.0 - - - - - - -
 
Date/Time
WST
Temp

°C
Wind Pressure Rain
since 9am
mm
Weather Cloud Vis
km
Sea
Height
m
Swell
Dir
 
Speed
knots
Gust
knots
hPa Trend Height
m
Period
s
Dir
29/11:30pm 15.2 NW 3 4 1015.1 - 0.0 - - - - - - -
29/11:00pm 15.2 N 3 4 1015.1 - 0.0 - - - - - - -
29/10:30pm 16.5 CALM 0 3 1015.2 - 0.0 - - - - - - -
29/10:00pm 16.2 SE 1 6 1015.2 - 0.0 - - - - - - -
29/09:30pm 18.1 CALM 0 5 1015.2 - 0.0 - - - - - - -
29/09:00pm 20.7 NNW 4 5 1015.2 - 0.0 - - - - - - -
29/08:30pm 20.1 WNW 6 8 1015.2 - 0.0 - - - - - - -
29/08:00pm 20.7 WNW 3 6 1014.8 - 0.0 - - - - - - -
29/07:30pm 22.5 E 7 8 1014.5 - 0.0 - - - - - - -
29/07:00pm 23.9 E 7 8 1014.2 - 0.0 - - - - - - -
29/06:30pm 23.2 ESE 6 7 1013.9 - 0.0 - - - - - - -
29/06:00pm 25.4 E 6 7 1013.5 - 0.0 - - - - - - -
29/05:30pm 27.1 E 6 8 1013.2 - 0.0 - - - - - - -
29/05:00pm 29.7 ENE 7 9 1012.9 - 0.0 - - - - - - -
29/04:30pm 31.2 ESE 7 11 1012.8 - 0.0 - - - - - - -
29/04:00pm 31.8 SE 11 14 1012.7 - 0.0 - - - - - - -
29/03:30pm 32.2 E 7 13 1012.7 - 0.0 - - - - - - -
29/03:00pm 32.4 S 9 13 1012.8 - 0.0 - - - - - - -
29/02:30pm 32.4 SE 5 10 1012.9 - 0.0 - - - - - - -
29/02:00pm 32.2 ESE 9 15 1013.2 - 0.0 - - - - - - -
29/01:30pm 32.6 ENE 9 17 1013.3 - 0.0 - - - - - - -
29/01:00pm 32.4 SE 9 16 1013.7 - 0.0 - - - - - - -
29/12:30pm 32.3 E 8 16 1014.4 - 0.0 - - - - - - -
29/12:00pm 32.0 E 11 19 1015.0 - 0.0 - - - - - - -
29/11:30am 31.8 ENE 11 15 1015.7 - 0.0 - - - - - - -
29/11:00am 31.2 E 13 18 1016.0 - 0.0 - - - - - - -
29/10:30am 30.9 ESE 14 20 1016.5 - 0.0 - - - - - - -
29/10:00am 30.0 E 16 23 1016.8 - 0.0 - - - - - - -
29/09:30am 29.8 E 16 22 1017.3 - 0.0 - - - - - - -
29/09:00am 29.6 E 17 24 1017.5 - 0.0 - - - - - - -
29/08:30am 28.9 E 18 24 1017.5 - 0.0 - - - - - - -
29/08:00am 27.5 ESE 12 15 1017.3 - 0.0 - - - - - - -
29/07:30am 26.0 ESE 6 10 1017.2 - 0.0 - - - - - - -
29/07:00am 22.0 SSW 3 4 1017.0 - 0.0 - - - - - - -
29/06:30am 20.4 E 5 6 1016.6 - 0.0 - - - - - - -
29/06:27am 20.0 E 5 6 1016.6 - 0.0 - - - - - - -
29/06:00am 14.9 NE 1 5 1016.3 - 0.0 - - - - - - -
29/05:30am 15.1 CALM 0 0 1016.0 - 0.0 - - - - - - -
29/05:00am 14.9 CALM 0 0 1015.8 - 0.0 - - - - - - -
29/04:30am 12.6 SSW 1 4 1015.5 - 0.0 - - - - - - -
29/04:00am 12.3 E 4 5 1015.3 - 0.0 - - - - - - -
29/03:30am 12.4 CALM 0 1 1015.3 - 0.0 - - - - - - -
29/03:00am 12.0 ESE 1 3 1015.1 - 0.0 - - - - - - -
29/02:30am 11.8 ESE 1 5 1015.0 - 0.0 - - - - - - -
29/02:00am 14.3 CALM 0 0 1015.1 - 0.0 - - - - - - -
29/01:30am 14.5 CALM 0 0 1015.2 - 0.0 - - - - - - -
29/01:00am 13.0 CALM 0 3 1015.2 - 0.0 - - - - - - -
29/12:30am 13.0 SSE 1 5 1015.2 - 0.0 - - - - - - -
29/12:00am 15.1 N 3 4 1015.4 - 0.0 - - - - - - -
 
Date/Time
WST
Temp

°C
Wind Pressure Rain
since 9am
mm
Weather Cloud Vis
km
Sea
Height
m
Swell
Dir
 
Speed
knots
Gust
knots
hPa Trend Height
m
Period
s
Dir
28/11:30pm 16.6 CALM 0 1 1015.5 - 0.0 - - - - - - -
28/11:00pm 16.7 WNW 2 5 1015.4 - 0.0 - - - - - - -
28/10:30pm 16.5 W 4 5 1015.4 - 0.0 - - - - - - -
28/10:00pm 17.0 NW 3 5 1015.5 - 0.0 - - - - - - -
28/09:30pm 17.9 CALM 0 4 1015.5 - 0.0 - - - - - - -
28/09:00pm 18.8 NNE 2 5 1015.7 - 0.0 - - - - - - -
28/08:30pm 21.6 E 6 7 1015.5 - 0.0 - - - - - - -
28/08:00pm 21.5 E 7 8 1015.3 - 0.0 - - - - - - -
28/07:30pm 21.8 E 5 6 1015.1 - 0.0 - - - - - - -
28/07:00pm 22.5 E 6 7 1014.7 - 0.0 - - - - - - -
28/06:30pm 23.2 ESE 7 8 1014.3 - 0.0 - - - - - - -
28/06:00pm 24.0 ESE 7 8 1013.9 - 0.0 - - - - - - -
28/05:30pm 25.8 ESE 8 10 1013.5 - 0.0 - - - - - - -
28/05:00pm 29.6 ESE 10 14 1013.1 - 0.0 - - - - - - -
28/04:30pm 30.9 E 10 14 1012.7 - 0.0 - - - - - - -
28/04:00pm 31.4 ESE 11 17 1012.5 - 0.0 - - - - - - -
28/03:30pm 32.0 ESE 9 18 1012.3 - 0.0 - - - - - - -
28/03:00pm 32.2 ESE 7 13 1012.5 - 0.0 - - - - - - -
28/02:30pm 32.4 SSE 9 15 1012.8 - 0.0 - - - - - - -
28/02:00pm 31.9 S 9 14 1012.9 - 0.0 - - - - - - -
28/01:30pm 31.9 S 4 6 1013.2 - 0.0 - - - - - - -
28/01:00pm 32.1 NE 7 14 1013.4 - 0.0 - - - - - - -
28/12:30pm 31.4 ESE 10 16 1014.1 - 0.0 - - - - - - -
28/12:00pm 31.9 SE 10 14 1014.8 - 0.0 - - - - - - -
28/11:30am 31.7 ESE 14 17 1015.3 - 0.0 - - - - - - -
28/11:00am 31.3 E 12 19 1015.8 - 0.0 - - - - - - -
28/10:30am 30.6 E 15 20 1016.4 - 0.0 - - - - - - -
28/10:00am 29.8 E 14 20 1016.5 - 0.0 - - - - - - -
28/09:30am 29.5 E 15 21 1016.8 - 0.0 - - - - - - -
28/09:00am 28.8 ESE 16 26 1017.0 - 0.0 - - - - - - -
28/08:59am 29.1 E 15 26 1017.0 - 0.0 - - - - - - -
28/08:30am 28.8 ESE 17 23 1017.1 - 0.0 - - - - - - -
28/08:00am 27.3 ESE 16 21 1017.0 - 0.0 - - - - - - -
28/07:30am 26.5 ESE 14 19 1016.8 - 0.0 - - - - - - -
28/07:00am 24.9 ESE 11 14 1016.5 - 0.0 - - - - - - -
28/06:30am 22.9 E 11 14 1016.1 - 0.0 - - - - - - -
28/06:00am 20.9 ESE 11 14 1015.8 - 0.0 - - - - - - -
28/05:30am 19.5 ESE 10 14 1015.6 - 0.0 - - - - - - -
28/05:00am 16.5 E 9 11 1015.3 - 0.0 - - - - - - -
28/04:30am 14.2 E 7 8 1015.2 - 0.0 - - - - - - -
28/04:00am 13.9 E 5 6 1014.9 - 0.0 - - - - - - -
28/03:30am 13.7 E 7 8 1014.7 - 0.0 - - - - - - -
28/03:00am 13.6 E 7 8 1014.6 - 0.0 - - - - - - -
28/02:30am 15.0 E 5 6 1014.6 - 0.0 - - - - - - -

Other Formats:

Comma delimited format used in spreadsheet applications
http://www.bom.gov.au/fwo/IDW60701/IDW60701.95214.axf

JavaScript Object Notation format (JSON) in row-major order
http://www.bom.gov.au/fwo/IDW60701/IDW60701.95214.json